createdAt,value
2018-11-28T00:02:57.150Z,30.73
2018-11-28T00:08:00.328Z,27.90
2018-11-28T00:13:03.386Z,29.13
2018-11-28T00:18:06.424Z,28.60
2018-11-28T00:23:09.492Z,27.60
2018-11-28T00:28:12.643Z,28.13
2018-11-28T00:33:15.749Z,29.30
2018-11-28T00:38:18.771Z,28.43
2018-11-28T00:43:21.835Z,28.87
2018-11-28T00:48:24.879Z,28.03
2018-11-28T00:53:27.947Z,27.57
2018-11-28T00:58:31.091Z,28.30
2018-11-28T01:03:34.290Z,28.27
2018-11-28T01:08:37.381Z,28.00
2018-11-28T01:13:40.467Z,29.13
2018-11-28T01:18:43.523Z,28.87
2018-11-28T01:23:46.562Z,27.60
2018-11-28T01:28:49.615Z,27.87
2018-11-28T01:33:52.653Z,28.40
2018-11-28T01:38:55.724Z,32.27
2018-11-28T01:43:58.790Z,32.47
2018-11-28T01:49:01.848Z,30.83
2018-11-28T01:54:05.598Z,31.00
2018-11-28T01:59:08.677Z,28.43
2018-11-28T02:04:11.723Z,27.10
2018-11-28T02:09:14.814Z,26.87
2018-11-28T02:14:17.839Z,27.87
2018-11-28T02:19:20.884Z,26.33
2018-11-28T02:24:23.917Z,25.90
2018-11-28T02:29:26.966Z,25.53
2018-11-28T02:34:30.025Z,25.63
2018-11-28T02:39:33.040Z,26.73
2018-11-28T02:44:36.087Z,24.90
2018-11-28T02:49:39.142Z,27.13
2018-11-28T02:54:42.171Z,25.77
2018-11-28T02:59:45.234Z,26.50
2018-11-28T03:04:48.295Z,24.77
2018-11-28T03:09:51.357Z,23.87
2018-11-28T03:14:54.394Z,23.73
2018-11-28T03:19:57.456Z,24.03
2018-11-28T03:25:00.497Z,24.17
2018-11-28T03:30:04.552Z,25.27
2018-11-28T03:35:09.203Z,24.10
2018-11-28T03:40:12.602Z,23.10
2018-11-28T03:45:16.250Z,22.73
2018-11-28T03:50:19.305Z,22.47
2018-11-28T03:55:22.358Z,25.23
2018-11-28T04:00:25.424Z,23.90
2018-11-28T04:05:28.524Z,23.97
2018-11-28T04:10:31.761Z,24.37
2018-11-28T04:15:34.851Z,22.70
2018-11-28T04:20:37.948Z,22.27
2018-11-28T04:25:41.037Z,22.30
2018-11-28T04:30:44.089Z,21.13
2018-11-28T04:35:47.155Z,21.97
2018-11-28T04:40:50.217Z,20.00
2018-11-28T04:45:53.274Z,24.43
2018-11-28T04:50:56.333Z,23.00
2018-11-28T04:55:59.393Z,22.03
2018-11-28T05:01:02.453Z,22.07
2018-11-28T05:06:05.499Z,20.40
2018-11-28T05:11:08.567Z,20.63
2018-11-28T05:16:18.351Z,20.93
2018-11-28T05:21:21.389Z,19.67
2018-11-28T05:26:24.504Z,20.27
2018-11-28T05:31:27.580Z,19.60
2018-11-28T05:36:30.624Z,21.73
2018-11-28T05:41:33.660Z,21.10
2018-11-28T05:46:36.699Z,20.10
2018-11-28T05:51:39.983Z,20.70
2018-11-28T05:56:43.044Z,21.10
2018-11-28T06:01:46.113Z,20.43
2018-11-28T06:06:49.169Z,20.80
2018-11-28T06:11:52.245Z,20.50
2018-11-28T06:16:55.295Z,19.80
2018-11-28T06:21:58.380Z,20.33
2018-11-28T06:27:01.411Z,21.60
2018-11-28T06:32:04.507Z,21.57
2018-11-28T06:37:07.592Z,21.70
2018-11-28T06:42:10.686Z,21.37
2018-11-28T06:47:13.795Z,23.20
2018-11-28T06:52:16.857Z,21.07
2018-11-28T06:57:19.920Z,21.10
2018-11-28T07:02:22.993Z,22.00
2018-11-28T07:07:26.050Z,21.20
2018-11-28T07:12:29.143Z,22.00
2018-11-28T07:17:32.222Z,21.50
2018-11-28T07:22:35.369Z,20.10
2018-11-28T07:27:38.432Z,19.43
2018-11-28T07:32:41.530Z,20.33
2018-11-28T07:37:44.598Z,19.73
2018-11-28T07:42:51.780Z,20.13
2018-11-28T07:47:54.940Z,18.90
2018-11-28T07:52:58.039Z,19.10
2018-11-28T07:58:01.186Z,20.20
2018-11-28T08:03:05.662Z,19.87
2018-11-28T08:08:10.607Z,18.47
2018-11-28T08:13:13.659Z,19.37
2018-11-28T08:18:16.769Z,18.77
2018-11-28T08:23:19.914Z,18.50
2018-11-28T08:28:22.957Z,19.47
2018-11-28T08:33:26.078Z,18.30
2018-11-28T08:38:29.122Z,18.20
2018-11-28T08:43:32.245Z,18.77
2018-11-28T08:48:35.350Z,17.53
2018-11-28T08:53:38.425Z,17.90
2018-11-28T08:58:41.583Z,19.13
2018-11-28T09:03:45.460Z,18.97
2018-11-28T09:08:48.630Z,19.20
2018-11-28T09:13:51.689Z,19.13
2018-11-28T09:18:54.814Z,15.97
2018-11-28T09:23:57.972Z,20.10
2018-11-28T09:29:01.387Z,19.07
2018-11-28T09:34:04.957Z,18.90
2018-11-28T09:39:08.380Z,19.00
2018-11-28T09:44:11.848Z,17.00
2018-11-28T09:49:15.324Z,17.67
2018-11-28T09:54:25.304Z,17.60
2018-11-28T09:59:28.646Z,15.57
2018-11-28T10:04:32.014Z,13.43
2018-11-28T10:09:35.343Z,13.60
2018-11-28T10:14:38.688Z,12.17
2018-11-28T10:19:41.993Z,11.23
2018-11-28T10:24:45.300Z,11.37
2018-11-28T10:29:48.618Z,10.87
2018-11-28T10:34:51.942Z,11.67
2018-11-28T10:39:55.296Z,11.30
2018-11-28T10:44:58.625Z,11.10
2018-11-28T10:50:01.927Z,10.90
2018-11-28T10:55:06.362Z,11.37
2018-11-28T11:00:48.591Z,11.20
2018-11-28T11:05:57.063Z,10.93
2018-11-28T11:11:05.704Z,10.93
2018-11-28T11:16:08.770Z,11.10
2018-11-28T11:21:12.229Z,12.63
2018-11-28T11:26:15.332Z,12.23
2018-11-28T11:31:52.086Z,12.10
2018-11-28T11:36:56.639Z,12.10
2018-11-28T11:41:59.688Z,12.20
2018-11-28T11:47:02.731Z,13.10
2018-11-28T11:52:05.820Z,11.53
2018-11-28T11:57:08.876Z,9.70
2018-11-28T12:02:11.904Z,9.07
2018-11-28T12:07:14.965Z,12.27
2018-11-28T12:12:18.024Z,9.57
2018-11-28T12:17:21.057Z,10.70
2018-11-28T12:22:24.184Z,10.93
2018-11-28T12:27:27.324Z,9.87
2018-11-28T12:32:30.440Z,10.57
2018-11-28T12:37:33.485Z,9.30
2018-11-28T12:42:36.586Z,9.13
2018-11-28T12:47:39.642Z,8.97
2018-11-28T12:52:42.672Z,8.80
2018-11-28T12:57:45.735Z,9.77
2018-11-28T13:02:48.812Z,9.17
2018-11-28T13:07:51.884Z,9.90
2018-11-28T13:12:55.067Z,8.57
2018-11-28T13:17:58.133Z,8.20
2018-11-28T13:23:01.186Z,9.00
2018-11-28T13:28:07.739Z,8.93
2018-11-28T13:33:10.799Z,9.87
2018-11-28T13:38:13.879Z,9.47
2018-11-28T13:43:16.925Z,9.47
2018-11-28T13:48:20.021Z,8.07
2018-11-28T13:53:23.083Z,8.67
2018-11-28T13:58:26.158Z,9.50
2018-11-28T14:03:29.211Z,9.93
2018-11-28T14:08:32.242Z,9.87
2018-11-28T14:13:35.272Z,9.20
2018-11-28T14:18:38.360Z,9.03
2018-11-28T14:23:41.397Z,9.90
2018-11-28T14:28:44.505Z,8.87
2018-11-28T14:33:50.843Z,9.17
2018-11-28T14:38:50.704Z,9.17
2018-11-28T14:43:53.760Z,8.93
2018-11-28T14:48:56.809Z,9.47
2018-11-28T14:53:59.831Z,9.60
2018-11-28T14:59:02.880Z,9.63
2018-11-28T15:04:06.437Z,9.40
2018-11-28T15:09:15.734Z,9.90
2018-11-28T15:14:18.777Z,9.77
2018-11-28T15:19:21.938Z,10.93
2018-11-28T15:24:25.299Z,11.03
2018-11-28T15:29:28.819Z,10.03
2018-11-28T15:34:32.189Z,11.20
2018-11-28T15:39:35.603Z,10.87
2018-11-28T15:44:38.929Z,9.67
2018-11-28T15:49:42.548Z,8.47
2018-11-28T15:54:45.681Z,8.67
2018-11-28T15:59:48.755Z,9.40
2018-11-28T16:04:51.833Z,9.20
2018-11-28T16:10:00.340Z,9.13
2018-11-28T16:15:03.385Z,9.10
2018-11-28T16:20:06.491Z,8.43
2018-11-28T16:25:11.479Z,8.87
2018-11-28T16:30:15.418Z,8.40
2018-11-28T16:35:18.599Z,8.77
2018-11-28T16:40:21.685Z,8.93
2018-11-28T16:45:24.820Z,8.90
2018-11-28T16:50:27.928Z,8.80
2018-11-28T16:55:30.952Z,7.03
2018-11-28T17:00:34.046Z,7.87
2018-11-28T17:05:39.329Z,6.63
2018-11-28T17:10:42.547Z,8.33
2018-11-28T17:15:45.600Z,8.20
2018-11-28T17:20:48.694Z,8.17
2018-11-28T17:25:51.737Z,9.03
2018-11-28T17:30:54.796Z,8.13
2018-11-28T17:35:57.843Z,8.27
2018-11-28T17:41:00.905Z,8.80
2018-11-28T17:46:04.093Z,10.40
2018-11-28T17:51:07.160Z,9.70
2018-11-28T17:56:10.271Z,10.93
2018-11-28T18:01:13.332Z,11.87
2018-11-28T18:06:16.414Z,11.83
2018-11-28T18:11:19.463Z,12.13
2018-11-28T18:16:23.552Z,12.70
2018-11-28T18:21:26.607Z,12.03
2018-11-28T18:26:29.948Z,11.57
2018-11-28T18:31:32.983Z,12.37
2018-11-28T18:36:36.076Z,13.03
2018-11-28T18:41:42.576Z,11.93
2018-11-28T18:46:45.679Z,13.30
2018-11-28T18:51:48.776Z,12.97
2018-11-28T18:56:51.836Z,14.40
2018-11-28T19:01:55.036Z,11.97
2018-11-28T19:06:58.102Z,14.57
2018-11-28T19:12:01.174Z,13.07
2018-11-28T19:17:04.260Z,10.90
2018-11-28T19:22:07.332Z,13.33
2018-11-28T19:27:10.477Z,13.60
2018-11-28T19:32:13.560Z,10.53
2018-11-28T19:37:16.662Z,10.77
2018-11-28T19:42:19.693Z,11.03
2018-11-28T19:47:22.736Z,10.90
2018-11-28T19:52:25.832Z,11.30
2018-11-28T19:57:28.944Z,9.90
2018-11-28T20:02:31.918Z,10.53
2018-11-28T20:07:34.989Z,11.20
2018-11-28T20:12:38.336Z,11.73
2018-11-28T20:17:41.372Z,12.37
2018-11-28T20:22:44.484Z,10.27
2018-11-28T20:27:52.906Z,10.80
2018-11-28T20:32:56.049Z,13.27
2018-11-28T20:37:59.180Z,13.17
2018-11-28T20:43:02.250Z,14.90
2018-11-28T20:48:05.324Z,14.77
2018-11-28T20:53:11.002Z,15.00
2018-11-28T20:58:14.229Z,16.53
2018-11-28T21:03:24.019Z,17.33
2018-11-28T21:08:27.206Z,18.80
2018-11-28T21:13:30.334Z,18.93
2018-11-28T21:18:33.562Z,18.47
2018-11-28T21:23:36.624Z,19.13
2018-11-28T21:28:39.667Z,19.67
2018-11-28T21:33:42.739Z,20.97
2018-11-28T21:38:46.189Z,18.13
2018-11-28T21:43:49.382Z,23.03
2018-11-28T21:48:57.504Z,21.33
2018-11-28T21:54:00.610Z,19.23
2018-11-28T21:59:03.652Z,21.83
2018-11-28T22:04:06.743Z,21.50
2018-11-28T22:09:09.826Z,20.90
2018-11-28T22:14:12.892Z,21.60
2018-11-28T22:19:16.205Z,18.03
2018-11-28T22:24:19.297Z,18.97
2018-11-28T22:29:22.504Z,18.37
2018-11-28T22:34:28.429Z,18.50
2018-11-28T22:39:31.735Z,18.20
2018-11-28T22:44:34.794Z,15.17
2018-11-28T22:49:37.969Z,18.07
2018-11-28T22:54:41.004Z,17.47
2018-11-28T22:59:44.029Z,17.83
2018-11-28T23:04:51.328Z,17.10
2018-11-28T23:09:54.427Z,17.53
2018-11-28T23:15:06.097Z,16.90
2018-11-28T23:20:10.924Z,15.33
2018-11-28T23:25:16.891Z,16.87
2018-11-28T23:30:23.815Z,15.73
2018-11-28T23:35:26.861Z,17.43
2018-11-28T23:40:30.364Z,17.37
2018-11-28T23:45:34.347Z,17.20
2018-11-28T23:50:37.375Z,16.67
2018-11-28T23:55:40.709Z,17.27
